Time;durP1;ratioP1;P1;durP2;ratioP2;P2;SDS_P1;SDS_P2;PMS_P1;PMS_P2;Temp;Humidity;BMP_temperature;BMP_pressure;BME280_temperature;BME280_humidity;BME280_pressure;Samples;Min_cycle;Max_cycle;Signal;HPM_P1;HPM_P2
2022/04/17 00:02:14;;;;;;;10.00;9.50;;;6.50;90.70;;;;;;6214062;23;20415;-74
2022/04/17 00:04:41;;;;;;;10.60;10.00;;;6.50;90.60;;;;;;6213889;23;20449;-74
2022/04/17 00:07:08;;;;;;;8.83;8.43;;;6.50;90.70;;;;;;6213356;23;21182;-75
2022/04/17 00:09:34;;;;;;;10.80;10.07;;;6.60;90.30;;;;;;6213831;23;20764;-74
2022/04/17 00:12:01;;;;;;;10.03;9.47;;;6.80;90.10;;;;;;6213936;23;20454;-75
2022/04/17 00:14:28;;;;;;;10.33;9.73;;;6.90;89.70;;;;;;6213515;23;20474;-74
2022/04/17 00:16:55;;;;;;;10.10;9.60;;;6.80;90.00;;;;;;6213723;23;20416;-74
2022/04/17 00:19:23;;;;;;;9.47;8.97;;;6.70;90.10;;;;;;6213477;23;20419;-74
2022/04/17 00:21:50;;;;;;;9.70;9.07;;;6.70;90.30;;;;;;6213555;23;20419;-74
2022/04/17 00:24:17;;;;;;;9.53;9.03;;;6.60;90.40;;;;;;6213594;23;20443;-74
2022/04/17 00:26:44;;;;;;;9.30;8.80;;;6.50;90.70;;;;;;6214286;23;20495;-74
2022/04/17 00:29:10;;;;;;;10.20;9.60;;;6.40;91.00;;;;;;6213033;23;20468;-74
2022/04/17 00:31:37;;;;;;;9.87;9.37;;;6.20;91.20;;;;;;6213435;23;20454;-75
2022/04/17 00:34:04;;;;;;;9.23;8.63;;;6.30;91.60;;;;;;6213300;23;20407;-74
2022/04/17 00:36:32;;;;;;;9.80;9.10;;;6.30;91.60;;;;;;6214234;23;20759;-74
2022/04/17 00:38:59;;;;;;;9.60;9.13;;;6.30;91.60;;;;;;6214006;23;20499;-74
2022/04/17 00:41:25;;;;;;;9.10;8.70;;;6.30;91.60;;;;;;6213654;23;20443;-75
2022/04/17 00:43:52;;;;;;;9.53;9.03;;;6.20;91.70;;;;;;6213128;23;20410;-76
2022/04/17 00:46:19;;;;;;;10.77;9.97;;;6.10;91.80;;;;;;6213205;23;20415;-74
2022/04/17 00:48:45;;;;;;;9.23;8.83;;;6.10;92.20;;;;;;6213670;23;20406;-75
2022/04/17 00:51:14;;;;;;;9.33;8.73;;;6.00;92.60;;;;;;6213139;23;20430;-74
2022/04/17 00:53:45;;;;;;;10.13;9.33;;;5.90;93.20;;;;;;6212768;23;20499;-74
2022/04/17 00:56:12;;;;;;;10.20;9.50;;;5.90;93.30;;;;;;6213908;23;20407;-74
2022/04/17 00:58:39;;;;;;;9.73;9.23;;;6.00;93.40;;;;;;6213248;23;20411;-74
2022/04/17 01:01:06;;;;;;;10.33;9.63;;;5.90;93.70;;;;;;6213222;23;20798;-75
2022/04/17 01:03:33;;;;;;;10.57;9.80;;;5.80;94.20;;;;;;6213215;23;20411;-76
2022/04/17 01:06:00;;;;;;;10.23;9.60;;;5.70;94.60;;;;;;6213506;23;20410;-75
2022/04/17 01:08:28;;;;;;;9.90;9.30;;;5.50;94.70;;;;;;6213259;23;20803;-76
2022/04/17 01:10:56;;;;;;;11.33;10.57;;;5.40;95.10;;;;;;6213178;23;20408;-76
2022/04/17 01:13:23;;;;;;;9.73;9.23;;;5.20;95.80;;;;;;6212837;23;20981;-76
2022/04/17 01:15:50;;;;;;;10.20;9.70;;;5.00;96.70;;;;;;6213092;23;20416;-76
2022/04/17 01:18:16;;;;;;;10.00;9.17;;;5.00;97.40;;;;;;6213071;23;20415;-76
2022/04/17 01:20:43;;;;;;;9.70;9.20;;;5.10;97.80;;;;;;6213642;23;20412;-76
2022/04/17 01:28:40;;;;;;;10.37;9.77;;;5.00;98.30;;;;;;6212748;23;20516;-75
2022/04/17 01:31:07;;;;;;;10.83;10.13;;;5.00;98.90;;;;;;6212898;23;20473;-76
2022/04/17 01:33:33;;;;;;;10.63;10.07;;;5.10;98.50;;;;;;6213222;23;20468;-76
2022/04/17 01:36:00;;;;;;;10.23;9.67;;;5.10;98.60;;;;;;6213210;23;20407;-76
2022/04/17 01:38:28;;;;;;;10.30;9.70;;;4.90;98.90;;;;;;6212688;23;20784;-76
2022/04/17 01:40:55;;;;;;;10.00;9.30;;;4.80;99.40;;;;;;6213272;23;20416;-74
2022/04/17 01:43:21;;;;;;;10.60;10.00;;;4.70;99.90;;;;;;6212834;23;20453;-75
2022/04/17 01:45:48;;;;;;;10.00;9.50;;;4.50;99.90;;;;;;6212658;23;20409;-77
2022/04/17 01:48:15;;;;;;;10.30;9.70;;;4.40;99.90;;;;;;6213029;23;20416;-76
2022/04/17 01:50:41;;;;;;;10.70;9.83;;;4.40;99.90;;;;;;6212767;23;20408;-75
2022/04/17 01:53:08;;;;;;;11.10;10.10;;;4.30;99.90;;;;;;6212623;23;20410;-76
2022/04/17 01:55:36;;;;;;;10.97;10.27;;;4.30;99.90;;;;;;6212583;23;20408;-75
2022/04/17 01:58:03;;;;;;;10.10;9.60;;;4.20;99.90;;;;;;6212746;23;20416;-75
2022/04/17 02:00:30;;;;;;;10.37;9.77;;;4.20;99.90;;;;;;6212742;23;20408;-75
2022/04/17 02:02:56;;;;;;;9.40;8.97;;;4.10;99.90;;;;;;6212513;23;20451;-75
2022/04/17 02:05:23;;;;;;;10.77;10.07;;;4.00;99.90;;;;;;6212267;23;20901;-76
2022/04/17 02:07:50;;;;;;;10.97;10.33;;;3.90;99.90;;;;;;6212589;23;20739;-75
2022/04/17 02:10:19;;;;;;;10.93;10.20;;;3.90;99.90;;;;;;6212361;23;20412;-75
2022/04/17 02:12:48;;;;;;;10.50;9.73;;;3.90;99.90;;;;;;6212573;23;20460;-75
2022/04/17 02:15:15;;;;;;;11.77;11.07;;;3.90;99.90;;;;;;6212668;23;20865;-74
2022/04/17 02:17:42;;;;;;;11.20;10.50;;;3.90;99.90;;;;;;6211791;23;20936;-74
2022/04/17 02:20:10;;;;;;;11.73;11.00;;;3.80;99.90;;;;;;6212226;23;20939;-74
2022/04/17 02:22:37;;;;;;;12.13;11.43;;;3.80;99.90;;;;;;6212336;23;20468;-75
2022/04/17 02:25:04;;;;;;;11.37;10.57;;;3.60;99.90;;;;;;6212072;23;20412;-75
2022/04/17 02:27:31;;;;;;;11.87;11.17;;;3.50;99.90;;;;;;6212842;23;20419;-75
2022/04/17 02:29:59;;;;;;;11.60;11.00;;;3.60;99.90;;;;;;6212874;23;20468;-75
2022/04/17 02:32:26;;;;;;;12.43;11.63;;;3.60;99.90;;;;;;6212296;23;20458;-75
2022/04/17 02:34:53;;;;;;;11.43;10.67;;;3.60;99.90;;;;;;6212154;23;20419;-75
2022/04/17 02:37:20;;;;;;;12.00;11.17;;;3.60;99.90;;;;;;6212017;23;20419;-75
2022/04/17 02:39:47;;;;;;;12.63;11.83;;;3.50;99.90;;;;;;6212525;23;20478;-75
2022/04/17 02:42:14;;;;;;;11.27;10.47;;;3.30;99.90;;;;;;6212535;23;20444;-75
2022/04/17 02:44:40;;;;;;;12.60;11.70;;;3.30;99.90;;;;;;6212323;23;20412;-75
2022/04/17 02:49:53;;;;;;;12.43;11.30;;;3.40;99.90;;;;;;6212172;23;20384;-75
2022/04/17 02:52:20;;;;;;;11.80;11.07;;;3.30;99.90;;;;;;6211904;23;20923;-75
2022/04/17 02:54:46;;;;;;;11.93;11.13;;;3.20;99.90;;;;;;6212300;23;20511;-75
2022/04/17 02:57:13;;;;;;;11.60;10.90;;;3.10;99.90;;;;;;6212423;23;20416;-75
2022/04/17 02:59:40;;;;;;;12.20;11.50;;;3.00;99.90;;;;;;6212226;23;20409;-75
2022/04/17 03:07:45;;;;;;;11.77;11.10;;;2.90;99.90;;;;;;6141074;23;20397;-74
2022/04/17 03:10:12;;;;;;;12.90;12.10;;;2.80;99.90;;;;;;6212112;23;20475;-74
2022/04/17 03:12:39;;;;;;;12.30;11.60;;;2.80;99.90;;;;;;6212002;23;20451;-74
2022/04/17 03:15:08;;;;;;;12.97;12.13;;;2.70;99.90;;;;;;6211650;23;20959;-75
2022/04/17 03:17:34;;;;;;;13.20;12.40;;;2.60;99.90;;;;;;6212022;23;20409;-74
2022/04/17 03:20:03;;;;;;;11.93;11.20;;;2.60;99.90;;;;;;6211850;23;20392;-75
2022/04/17 03:22:30;;;;;;;12.13;11.43;;;2.60;99.90;;;;;;6212163;23;20747;-74
2022/04/17 03:24:57;;;;;;;12.57;11.73;;;2.70;99.90;;;;;;6211998;23;20410;-74
2022/04/17 03:27:23;;;;;;;14.43;13.10;;;2.70;99.90;;;;;;6211798;23;20413;-74
2022/04/17 03:29:50;;;;;;;12.43;11.73;;;2.60;99.90;;;;;;6211928;23;20409;-74
2022/04/17 03:32:17;;;;;;;13.50;12.60;;;2.50;99.90;;;;;;6212204;23;20405;-75
2022/04/17 03:34:43;;;;;;;13.27;12.27;;;2.40;99.90;;;;;;6212169;23;20413;-74
2022/04/17 03:37:11;;;;;;;13.87;12.97;;;2.50;99.90;;;;;;6212016;23;20467;-73
2022/04/17 03:39:38;;;;;;;12.97;12.20;;;2.60;99.90;;;;;;6211858;23;20746;-74
2022/04/17 03:42:05;;;;;;;12.40;11.40;;;2.70;99.90;;;;;;6211519;23;20460;-74
2022/04/17 03:44:32;;;;;;;13.67;12.43;;;2.70;99.90;;;;;;6211909;23;20412;-74
2022/04/17 03:46:58;;;;;;;12.00;11.20;;;2.70;99.90;;;;;;6212406;23;20406;-74
2022/04/17 03:49:25;;;;;;;12.50;11.70;;;2.80;99.90;;;;;;6211990;23;20786;-74
2022/04/17 03:51:52;;;;;;;12.20;11.40;;;2.90;99.90;;;;;;6211528;23;20971;-74
2022/04/17 03:54:20;;;;;;;11.93;11.23;;;2.90;99.90;;;;;;6211863;23;20460;-74
2022/04/17 03:56:47;;;;;;;12.30;11.17;;;2.80;99.90;;;;;;6211578;23;20470;-74
2022/04/17 03:59:14;;;;;;;11.43;10.73;;;2.80;99.90;;;;;;6212123;23;20420;-74
2022/04/17 04:01:41;;;;;;;10.63;9.93;;;3.00;99.90;;;;;;6211891;23;20409;-74
2022/04/17 04:04:08;;;;;;;11.17;10.47;;;3.00;99.90;;;;;;6211322;23;20446;-74
2022/04/17 04:06:34;;;;;;;11.60;11.00;;;2.90;99.90;;;;;;6211763;23;20404;-74
2022/04/17 04:09:02;;;;;;;11.93;10.93;;;2.90;99.90;;;;;;6211919;23;20431;-74
2022/04/17 04:11:30;;;;;;;11.80;11.10;;;2.90;99.90;;;;;;6211402;23;20431;-78
2022/04/17 04:13:56;;;;;;;17.03;11.43;;;2.90;99.90;;;;;;6211492;23;20491;-78
2022/04/17 04:16:23;;;;;;;13.30;12.50;;;2.80;99.90;;;;;;6211576;23;20742;-78
2022/04/17 04:18:50;;;;;;;12.50;11.70;;;2.80;99.90;;;;;;6211659;23;20408;-78
2022/04/17 04:21:17;;;;;;;13.77;12.87;;;2.70;99.90;;;;;;6212045;23;20413;-77
2022/04/17 04:23:43;;;;;;;13.43;12.57;;;2.70;99.90;;;;;;6211868;23;20486;-74
2022/04/17 04:26:10;;;;;;;13.13;12.13;;;2.60;99.90;;;;;;6211147;23;20407;-74
2022/04/17 04:28:37;;;;;;;14.70;13.70;;;2.40;99.90;;;;;;6211467;23;20947;-75
2022/04/17 04:31:05;;;;;;;13.00;12.30;;;2.40;99.90;;;;;;6211678;23;20505;-74
2022/04/17 04:33:32;;;;;;;13.17;12.17;;;2.40;99.90;;;;;;6211779;23;20415;-74
2022/04/17 04:35:59;;;;;;;13.47;12.47;;;2.40;99.90;;;;;;6211868;23;20410;-75
2022/04/17 04:38:26;;;;;;;13.93;12.90;;;2.50;99.90;;;;;;6211551;23;20445;-74
2022/04/17 04:40:53;;;;;;;12.27;11.37;;;2.60;99.90;;;;;;6212817;23;20411;-74
2022/04/17 04:43:20;;;;;;;13.30;12.53;;;2.50;99.90;;;;;;6213381;23;20443;-74
2022/04/17 04:51:17;;;;;;;13.83;12.83;;;2.60;99.90;;;;;;6213573;23;20373;-75
2022/04/17 04:53:44;;;;;;;13.03;12.20;;;2.60;99.90;;;;;;6213332;23;20406;-75
2022/04/17 04:56:12;;;;;;;13.47;12.57;;;2.70;99.90;;;;;;6213250;23;20425;-75
2022/04/17 04:58:39;;;;;;;13.33;12.13;;;2.80;99.90;;;;;;6213453;23;20409;-75
2022/04/17 05:01:07;;;;;;;11.50;10.80;;;2.90;99.90;;;;;;6212835;23;20923;-74
2022/04/17 05:03:35;;;;;;;12.27;11.13;;;3.00;99.90;;;;;;6213134;23;20504;-74
2022/04/17 05:06:02;;;;;;;12.00;10.97;;;2.90;99.90;;;;;;6213585;23;20441;-74
2022/04/17 05:08:28;;;;;;;11.83;10.83;;;3.00;99.90;;;;;;6213347;23;20412;-74
2022/04/17 05:10:55;;;;;;;11.10;10.30;;;2.90;99.90;;;;;;6213157;23;20414;-74
2022/04/17 05:13:22;;;;;;;12.00;10.93;;;3.00;99.90;;;;;;6213001;23;20498;-74
2022/04/17 05:15:49;;;;;;;12.03;11.10;;;3.20;99.90;;;;;;6213347;23;20401;-74
2022/04/17 05:18:17;;;;;;;11.57;10.80;;;3.20;99.90;;;;;;6213291;23;20435;-74
2022/04/17 05:20:43;;;;;;;12.23;11.10;;;3.20;99.90;;;;;;6213344;23;20904;-74
2022/04/17 05:23:19;;;;;;;12.37;11.47;;;3.30;99.90;;;;;;6213021;23;20452;-74
2022/04/17 05:25:47;;;;;;;12.77;11.87;;;3.40;99.90;;;;;;6213318;23;20397;-75
2022/04/17 05:28:14;;;;;;;14.43;12.53;;;3.80;99.90;;;;;;6213112;23;20921;-75
2022/04/17 05:30:40;;;;;;;12.00;11.20;;;4.50;99.90;;;;;;6213235;23;20408;-74
2022/04/17 05:33:07;;;;;;;10.80;10.13;;;5.30;99.90;;;;;;6212433;23;20625;-75
2022/04/17 05:35:35;;;;;;;11.73;11.03;;;6.10;99.90;;;;;;6213005;23;20435;-74
2022/04/17 05:38:02;;;;;;;11.80;11.17;;;6.90;99.90;;;;;;6212800;23;20881;-74
2022/04/17 05:40:33;;;;;;;11.93;11.23;;;7.60;99.90;;;;;;6213257;23;20435;-74
2022/04/17 05:43:00;;;;;;;11.23;10.60;;;8.20;99.90;;;;;;6213272;23;20432;-75
2022/04/17 05:45:28;;;;;;;10.47;9.87;;;8.40;99.50;;;;;;6212867;23;20412;-75
2022/04/17 05:47:55;;;;;;;11.00;10.30;;;8.50;97.90;;;;;;6212981;23;20409;-75
2022/04/17 05:50:22;;;;;;;11.20;10.50;;;8.80;98.20;;;;;;6212795;23;20412;-75
2022/04/17 05:52:51;;;;;;;12.33;11.23;;;9.30;96.60;;;;;;6212353;23;20405;-75
2022/04/17 05:55:18;;;;;;;12.37;11.57;;;9.90;95.20;;;;;;6212650;23;20412;-75
2022/04/17 05:57:44;;;;;;;11.30;10.70;;;10.50;93.40;;;;;;6212826;23;20420;-75
2022/04/17 06:00:12;;;;;;;11.37;10.67;;;10.50;91.10;;;;;;6212750;23;20418;-75
2022/04/17 06:02:39;;;;;;;10.30;9.73;;;10.80;90.80;;;;;;6212503;23;20419;-75
2022/04/17 06:05:07;;;;;;;11.53;10.80;;;11.00;90.20;;;;;;6212510;23;20751;-75
2022/04/17 06:07:34;;;;;;;12.97;12.03;;;11.40;90.00;;;;;;6212865;23;20435;-76
2022/04/17 06:10:04;;;;;;;11.53;10.97;;;11.60;87.00;;;;;;6212521;23;20997;-75
2022/04/17 06:12:31;;;;;;;11.00;10.50;;;11.90;85.60;;;;;;6212591;23;20795;-77
2022/04/17 06:14:58;;;;;;;10.77;10.27;;;12.20;84.40;;;;;;6211824;23;20436;-76
2022/04/17 06:17:25;;;;;;;11.60;10.90;;;12.70;79.50;;;;;;6212233;23;20417;-75
2022/04/17 06:19:52;;;;;;;11.03;10.53;;;13.10;77.00;;;;;;6212260;23;20419;-76
2022/04/17 06:22:18;;;;;;;11.10;10.50;;;13.50;76.80;;;;;;6212260;23;20428;-76
2022/04/17 06:24:45;;;;;;;11.03;10.50;;;13.70;74.00;;;;;;6212566;23;20440;-75
2022/04/17 06:27:13;;;;;;;10.97;10.53;;;13.60;70.80;;;;;;6212794;23;20411;-76
2022/04/17 06:29:40;;;;;;;11.60;11.00;;;13.90;70.70;;;;;;6212255;23;20413;-76
2022/04/17 06:32:08;;;;;;;12.10;11.50;;;14.10;68.40;;;;;;6211784;23;20412;-73
2022/04/17 06:34:35;;;;;;;12.77;11.87;;;14.70;66.20;;;;;;6212447;23;20738;-76
2022/04/17 06:37:01;;;;;;;11.20;10.63;;;14.80;65.20;;;;;;6212665;23;20459;-76
2022/04/17 06:39:28;;;;;;;10.53;10.00;;;14.30;66.00;;;;;;6212282;23;20443;-73
2022/04/17 06:41:57;;;;;;;10.70;10.30;;;14.40;66.40;;;;;;6212141;23;20508;-72
2022/04/17 06:44:25;;;;;;;10.87;10.37;;;14.70;64.80;;;;;;6212019;23;20827;-73
2022/04/17 06:46:51;;;;;;;10.80;10.37;;;15.20;63.20;;;;;;6212238;23;20423;-75
2022/04/17 06:49:18;;;;;;;10.97;10.47;;;15.70;62.00;;;;;;6212243;23;20413;-76
2022/04/17 06:51:45;;;;;;;10.47;10.07;;;15.30;61.10;;;;;;6211871;23;20419;-75
2022/04/17 06:54:11;;;;;;;10.90;10.30;;;15.70;60.10;;;;;;6211808;23;20401;-75
2022/04/17 06:56:38;;;;;;;10.97;10.53;;;15.80;58.90;;;;;;6212063;23;20893;-76
2022/04/17 06:59:05;;;;;;;11.13;10.63;;;16.10;58.80;;;;;;6211931;23;20732;-74
2022/04/17 07:01:33;;;;;;;11.47;10.97;;;16.80;57.20;;;;;;6212610;23;20417;-74
2022/04/17 07:04:00;;;;;;;11.00;10.50;;;16.90;56.50;;;;;;6212584;23;20813;-74
2022/04/17 07:06:27;;;;;;;11.20;10.70;;;17.00;56.00;;;;;;6212426;23;20440;-74
2022/04/17 07:08:53;;;;;;;10.67;10.20;;;17.30;54.70;;;;;;6212623;23;20404;-74
2022/04/17 07:11:23;;;;;;;11.47;10.93;;;17.80;53.50;;;;;;6212048;23;20435;-72
2022/04/17 07:13:50;;;;;;;11.30;10.70;;;18.10;52.80;;;;;;6212134;23;20437;-72
2022/04/17 07:16:17;;;;;;;11.40;10.80;;;18.10;51.30;;;;;;6212858;23;20416;-75
2022/04/17 07:18:45;;;;;;;11.40;10.90;;;18.60;50.40;;;;;;6212757;23;20423;-72
2022/04/17 07:21:11;;;;;;;10.20;9.70;;;18.30;50.40;;;;;;6212361;23;20413;-74
2022/04/17 07:23:38;;;;;;;10.60;10.10;;;18.50;50.60;;;;;;6211937;23;20732;-75
2022/04/17 07:26:05;;;;;;;10.83;10.37;;;18.10;49.90;;;;;;6212332;23;20420;-74
2022/04/17 07:28:32;;;;;;;10.60;10.20;;;17.90;49.00;;;;;;6212133;23;20409;-78
2022/04/17 07:30:58;;;;;;;11.30;10.70;;;17.10;50.40;;;;;;6209633;23;20409;-79
2022/04/17 07:33:25;;;;;;;10.60;9.80;;;16.70;49.70;;;;;;6210088;23;20458;-80
2022/04/17 07:35:53;;;;;;;10.23;9.73;;;15.90;51.90;;;;;;6211944;23;20412;-77
2022/04/17 07:38:20;;;;;;;9.73;9.33;;;15.20;51.40;;;;;;6206840;23;20797;-80
2022/04/17 07:40:47;;;;;;;10.00;9.60;;;14.70;52.30;;;;;;6210514;23;20412;-80
2022/04/17 07:43:14;;;;;;;10.80;10.20;;;14.80;52.60;;;;;;6212891;23;20413;-76
2022/04/17 07:45:40;;;;;;;10.47;9.97;;;14.90;52.60;;;;;;6212166;23;20744;-76
2022/04/17 07:48:07;;;;;;;10.53;10.10;;;15.30;52.30;;;;;;6212281;23;20409;-76
2022/04/17 07:50:34;;;;;;;11.80;11.10;;;15.20;51.60;;;;;;6212346;23;20412;-77
2022/04/17 07:53:02;;;;;;;9.70;9.20;;;15.10;51.70;;;;;;6212363;23;20408;-77
2022/04/17 07:55:29;;;;;;;10.00;9.50;;;15.30;51.30;;;;;;6212390;23;20404;-77
2022/04/17 07:58:01;;;;;;;9.70;9.20;;;15.50;50.80;;;;;;6211964;23;20419;-76
2022/04/17 08:00:31;;;;;;;10.50;9.90;;;15.10;51.10;;;;;;6212385;23;20721;-77
2022/04/17 08:03:09;;;;;;;10.37;9.87;;;14.60;51.00;;;;;;6212415;23;20429;-78
2022/04/17 08:05:36;;;;;;;10.20;9.80;;;14.50;51.50;;;;;;6212133;23;20464;-77
2022/04/17 08:08:06;;;;;;;10.00;9.40;;;14.50;52.50;;;;;;6212260;23;20420;-78
2022/04/17 08:10:33;;;;;;;9.53;9.07;;;14.60;51.70;;;;;;6212207;23;20464;-79
2022/04/17 08:12:59;;;;;;;9.73;9.33;;;14.70;52.10;;;;;;6212206;23;20440;-78
2022/04/17 08:15:26;;;;;;;10.07;9.53;;;15.10;52.10;;;;;;6213689;23;20393;-79
2022/04/17 08:17:53;;;;;;;9.40;9.00;;;15.70;51.10;;;;;;6213881;23;20409;-79
2022/04/17 08:20:20;;;;;;;9.83;9.33;;;16.00;49.30;;;;;;6213988;23;20423;-80
2022/04/17 08:22:47;;;;;;;9.90;9.40;;;16.00;49.70;;;;;;6214276;23;20408;-78
2022/04/17 08:25:15;;;;;;;9.47;9.03;;;16.30;50.00;;;;;;6213974;23;20440;-79
2022/04/17 08:27:46;;;;;;;9.87;9.37;;;16.90;49.40;;;;;;6211473;23;20408;-81
2022/04/17 08:30:13;;;;;;;9.80;9.30;;;17.30;48.30;;;;;;6213149;23;20432;-80
2022/04/17 08:32:40;;;;;;;9.80;9.30;;;16.10;52.00;;;;;;6213770;23;20436;-81
2022/04/17 08:35:08;;;;;;;9.83;9.43;;;16.10;48.30;;;;;;6214011;23;20416;-80
2022/04/17 08:37:35;;;;;;;9.60;9.10;;;15.90;48.10;;;;;;6213737;23;20474;-79
2022/04/17 08:40:04;;;;;;;10.43;9.50;;;15.80;48.80;;;;;;6214059;23;20491;-80
2022/04/17 08:42:33;;;;;;;9.37;8.97;;;16.20;48.60;;;;;;6214299;23;20415;-80
2022/04/17 08:45:00;;;;;;;9.87;9.47;;;17.30;47.70;;;;;;6213593;23;20444;-82
2022/04/17 08:47:26;;;;;;;10.50;9.77;;;18.00;46.10;;;;;;6213488;23;20408;-79
2022/04/17 08:49:55;;;;;;;9.80;9.30;;;18.10;45.60;;;;;;6213468;23;20416;-81
2022/04/17 08:52:23;;;;;;;9.70;9.23;;;17.50;46.30;;;;;;6213278;23;20658;-80
2022/04/17 08:54:50;;;;;;;9.20;8.70;;;17.50;46.30;;;;;;6213533;23;20557;-81
2022/04/17 08:57:17;;;;;;;9.30;9.00;;;16.50;47.50;;;;;;6213560;23;20409;-81
2022/04/17 08:59:45;;;;;;;9.00;8.60;;;16.50;49.00;;;;;;6213818;23;20412;-80
2022/04/17 09:02:12;;;;;;;9.20;8.80;;;17.70;48.00;;;;;;6213295;23;20515;-81
2022/04/17 09:04:40;;;;;;;8.83;8.53;;;18.10;44.50;;;;;;6213302;23;20479;-81
2022/04/17 09:07:08;;;;;;;8.93;8.60;;;17.50;44.90;;;;;;6213358;23;20440;-80
2022/04/17 09:09:38;;;;;;;8.73;8.23;;;17.00;45.80;;;;;;6213474;23;20415;-81
2022/04/17 09:12:05;;;;;;;9.33;8.93;;;17.50;45.50;;;;;;6213492;23;20432;-82
2022/04/17 09:14:32;;;;;;;9.27;8.87;;;16.90;46.00;;;;;;6213308;23;20451;-82
2022/04/17 09:17:00;;;;;;;9.10;8.70;;;16.90;46.30;;;;;;6214283;23;20431;-83
2022/04/17 09:19:27;;;;;;;8.97;8.53;;;17.00;46.10;;;;;;6213017;23;20409;-81
2022/04/17 09:21:55;;;;;;;8.60;8.23;;;17.50;46.40;;;;;;6212639;23;20439;-82
2022/04/17 09:24:24;;;;;;;8.70;8.30;;;18.20;45.70;;;;;;6213636;23;20445;-82
2022/04/17 09:26:53;;;;;;;8.27;7.87;;;17.90;44.90;;;;;;6213519;23;20425;-83
2022/04/17 09:29:22;;;;;;;8.63;8.20;;;17.40;45.80;;;;;;6213150;23;20408;-82
2022/04/17 09:31:57;;;;;;;9.40;9.00;;;17.70;45.50;;;;;;6213476;23;20787;-83
2022/04/17 09:34:25;;;;;;;8.53;8.13;;;18.40;44.60;;;;;;6213352;23;20767;-81
2022/04/17 09:36:58;;;;;;;9.67;9.27;;;18.20;44.40;;;;;;6213153;23;20416;-81
2022/04/17 09:39:31;;;;;;;9.37;8.87;;;17.80;44.60;;;;;;6213617;23;20467;-83
2022/04/17 09:42:01;;;;;;;8.40;7.80;;;17.90;45.40;;;;;;6214765;23;20451;-84
2022/04/17 09:44:38;;;;;;;9.00;8.50;;;18.10;45.20;;;;;;6213494;23;20486;-83
2022/04/17 09:47:06;;;;;;;10.20;9.67;;;18.30;44.40;;;;;;6213669;23;20380;-82
2022/04/17 09:49:51;;;;;;;9.60;9.13;;;18.70;44.40;;;;;;6213462;23;20927;-83
2022/04/17 09:52:18;;;;;;;10.57;9.93;;;19.10;43.70;;;;;;6213632;23;20432;-82
2022/04/17 09:54:45;;;;;;;9.60;9.10;;;18.90;43.60;;;;;;6213679;23;20412;-83
2022/04/17 09:57:12;;;;;;;10.17;9.60;;;19.30;44.50;;;;;;6213034;23;20412;-81
2022/04/17 09:59:39;;;;;;;10.30;9.70;;;20.10;42.90;;;;;;6213355;23;20408;-81
2022/04/17 10:02:06;;;;;;;9.80;9.40;;;19.70;41.80;;;;;;6219171;23;20579;-82
2022/04/17 10:04:32;;;;;;;9.93;9.50;;;19.20;42.50;;;;;;6214467;23;20818;-82
2022/04/17 10:07:01;;;;;;;10.53;10.00;;;19.10;43.60;;;;;;6217159;23;20409;-82
2022/04/17 10:09:28;;;;;;;10.27;9.70;;;18.70;44.00;;;;;;6216662;23;20715;-82
2022/04/17 10:11:56;;;;;;;9.50;9.20;;;19.40;43.30;;;;;;6213082;23;20940;-82
2022/04/17 10:14:24;;;;;;;10.13;9.63;;;20.80;41.90;;;;;;6213929;23;20491;-84
2022/04/17 10:16:54;;;;;;;10.53;10.10;;;21.70;40.90;;;;;;6214316;23;20409;-84
2022/04/17 10:19:21;;;;;;;10.03;9.63;;;22.90;39.90;;;;;;6213601;23;20451;-84
2022/04/17 10:21:48;;;;;;;9.20;8.80;;;22.80;38.60;;;;;;6216449;23;20512;-83
2022/04/17 10:24:18;;;;;;;10.20;9.80;;;22.70;38.40;;;;;;6213782;23;20405;-84
2022/04/17 10:26:47;;;;;;;10.50;10.10;;;23.10;37.70;;;;;;6215670;23;20884;-84
2022/04/17 10:29:17;;;;;;;10.67;10.27;;;22.50;37.50;;;;;;6214063;23;20417;-83
2022/04/17 10:32:04;;;;;;;9.70;9.40;;;21.60;38.70;;;;;;6220115;23;20389;-83
2022/04/17 10:34:58;;;;;;;10.27;9.83;;;21.70;38.50;;;;;;6228266;23;20385;-84
2022/04/17 10:38:00;;;;;;;10.67;10.27;;;21.60;38.70;;;;;;6186410;23;20970;-84
2022/04/17 10:40:29;;;;;;;10.40;9.90;;;22.10;38.60;;;;;;6217267;23;20396;-84
2022/04/17 10:42:57;;;;;;;10.10;9.63;;;20.60;38.80;;;;;;6218309;23;20505;-85
2022/04/17 10:45:25;;;;;;;9.70;9.30;;;20.40;39.20;;;;;;6218483;23;20444;-84
2022/04/17 10:48:03;;;;;;;10.17;9.77;;;21.10;39.10;;;;;;6213849;23;20416;-83
2022/04/17 10:50:31;;;;;;;10.10;9.60;;;22.60;38.20;;;;;;6215572;23;20404;-82
2022/04/17 10:53:24;;;;;;;9.77;9.10;;;23.40;35.40;;;;;;6215554;23;20420;-83
2022/04/17 10:56:06;;;;;;;9.50;9.10;;;22.90;36.10;;;;;;6212828;23;20421;-83
2022/04/17 10:58:37;;;;;;;10.40;9.87;;;22.30;36.40;;;;;;6213257;23;20750;-84
2022/04/17 11:01:04;;;;;;;10.00;9.60;;;21.20;37.10;;;;;;6212861;23;20405;-84
2022/04/17 11:03:35;;;;;;;9.90;9.50;;;20.90;37.90;;;;;;6213064;23;20412;-83
2022/04/17 11:06:30;;;;;;;9.60;9.30;;;20.60;37.70;;;;;;6212915;23;20744;-84
2022/04/17 11:09:04;;;;;;;9.70;9.30;;;20.20;37.10;;;;;;6214820;23;20409;-85
2022/04/17 11:11:39;;;;;;;9.80;9.30;;;20.30;36.90;;;;;;6212976;23;20474;-85
2022/04/17 11:14:10;;;;;;;10.17;9.77;;;20.30;36.50;;;;;;6212686;23;20440;-86
2022/04/17 11:16:39;;;;;;;10.27;9.87;;;20.50;37.00;;;;;;6212565;23;20389;-85
2022/04/17 11:19:11;;;;;;;9.67;9.30;;;20.30;37.10;;;;;;6212458;23;20412;-86
2022/04/17 11:21:41;;;;;;;9.80;9.40;;;20.90;36.40;;;;;;6212600;23;20385;-84
2022/04/17 11:24:08;;;;;;;9.60;9.30;;;21.20;36.40;;;;;;6212646;23;20415;-84
2022/04/17 11:27:13;;;;;;;10.40;10.00;;;21.70;36.90;;;;;;6212450;23;20445;-84
2022/04/17 11:29:43;;;;;;;10.13;9.67;;;21.30;36.80;;;;;;6212266;23;20388;-85
2022/04/17 11:32:49;;;;;;;10.13;9.83;;;21.00;37.20;;;;;;6212777;23;20419;-84
2022/04/17 11:35:17;;;;;;;10.40;9.90;;;20.20;37.00;;;;;;6213227;23;20409;-84
2022/04/17 11:37:52;;;;;;;10.20;9.70;;;19.50;36.20;;;;;;6212983;23;20432;-83
2022/04/17 11:40:21;;;;;;;9.60;9.20;;;19.80;36.70;;;;;;6213001;23;20412;-84
2022/04/17 11:42:51;;;;;;;10.50;10.00;;;20.20;36.20;;;;;;6212927;23;20423;-83
2022/04/17 11:45:20;;;;;;;11.00;10.40;;;20.40;36.50;;;;;;6212446;23;20454;-83
2022/04/17 11:47:48;;;;;;;10.63;10.20;;;20.60;36.40;;;;;;6212325;23;20912;-83
2022/04/17 11:50:26;;;;;;;10.10;9.67;;;20.40;36.60;;;;;;6211873;23;20916;-83
2022/04/17 11:52:54;;;;;;;10.40;10.00;;;20.60;36.80;;;;;;6212231;23;20511;-82
2022/04/17 11:55:29;;;;;;;10.20;9.70;;;20.90;36.90;;;;;;6212350;23;20412;-83
2022/04/17 11:57:59;;;;;;;10.93;10.53;;;21.20;35.70;;;;;;6212372;23;20771;-82
2022/04/17 12:00:27;;;;;;;9.87;9.50;;;21.10;35.50;;;;;;6211752;23;20420;-82
2022/04/17 12:02:58;;;;;;;10.93;10.43;;;21.20;35.90;;;;;;6212054;23;20411;-83
2022/04/17 12:05:26;;;;;;;9.93;9.53;;;21.10;35.40;;;;;;6211636;23;20452;-82
2022/04/17 12:07:57;;;;;;;9.97;9.47;;;21.10;36.40;;;;;;6212225;23;20548;-82
2022/04/17 12:10:24;;;;;;;10.23;9.83;;;20.90;35.50;;;;;;6212288;23;20408;-82
2022/04/17 12:12:51;;;;;;;10.60;10.20;;;21.10;35.90;;;;;;6211909;23;20936;-82
2022/04/17 12:15:20;;;;;;;11.13;10.63;;;20.60;34.90;;;;;;6212378;23;20443;-83
2022/04/17 12:17:59;;;;;;;10.30;9.90;;;21.10;35.50;;;;;;6212594;23;20404;-83
2022/04/17 12:20:26;;;;;;;10.30;9.90;;;20.80;35.20;;;;;;6213166;23;20420;-83
2022/04/17 12:22:54;;;;;;;10.73;10.23;;;21.10;37.10;;;;;;6212604;23;20413;-81
2022/04/17 12:25:22;;;;;;;10.40;9.80;;;21.30;36.00;;;;;;6212298;23;20437;-82
2022/04/17 12:27:50;;;;;;;9.80;9.40;;;20.80;35.90;;;;;;6212230;23;20409;-82
2022/04/17 12:30:21;;;;;;;10.00;9.50;;;19.80;37.20;;;;;;6212452;23;20411;-82
2022/04/17 12:32:48;;;;;;;9.00;8.70;;;19.80;37.90;;;;;;6212727;23;20393;-82
2022/04/17 12:35:24;;;;;;;10.30;9.90;;;19.90;36.30;;;;;;6212365;23;20409;-82
2022/04/17 12:37:51;;;;;;;10.40;9.83;;;20.00;36.80;;;;;;6211867;23;20396;-83
2022/04/17 12:40:20;;;;;;;10.03;9.47;;;20.20;37.20;;;;;;6211811;23;20741;-81
2022/04/17 12:42:48;;;;;;;9.10;8.60;;;20.20;37.30;;;;;;6212146;23;20844;-82
2022/04/17 12:45:25;;;;;;;10.90;10.50;;;20.30;35.80;;;;;;6211826;23;20990;-83
2022/04/17 12:48:02;;;;;;;10.20;9.80;;;20.90;34.70;;;;;;6212033;23;20445;-83
2022/04/17 12:50:29;;;;;;;10.43;9.93;;;22.00;35.20;;;;;;6211880;23;20393;-83
2022/04/17 12:52:56;;;;;;;10.10;9.60;;;22.20;35.00;;;;;;6211607;23;20750;-82
2022/04/17 12:55:30;;;;;;;9.70;9.40;;;21.60;35.00;;;;;;6212307;23;20444;-82
2022/04/17 12:57:57;;;;;;;9.90;9.50;;;20.70;36.20;;;;;;6212655;23;20421;-83
2022/04/17 13:00:26;;;;;;;9.53;9.13;;;21.30;35.90;;;;;;6212760;23;20412;-82
2022/04/17 13:03:08;;;;;;;10.13;9.73;;;21.90;35.40;;;;;;6214028;23;20414;-82
2022/04/17 13:05:35;;;;;;;10.30;9.90;;;21.60;33.30;;;;;;6214068;23;20773;-82